sensor_id;sensor_type;location;lat;lon;timestamp;temperature;humidity
7341;DHT22;6870;50.944;6.932;2022-12-07T00:01:41;17.60;46.80
7341;DHT22;6870;50.944;6.932;2022-12-07T00:04:12;17.80;47.00
7341;DHT22;6870;50.944;6.932;2022-12-07T00:06:43;17.80;47.00
7341;DHT22;6870;50.944;6.932;2022-12-07T00:09:14;17.70;47.10
7341;DHT22;6870;50.944;6.932;2022-12-07T00:11:44;17.60;47.00
7341;DHT22;6870;50.944;6.932;2022-12-07T00:14:15;17.70;47.00
7341;DHT22;6870;50.944;6.932;2022-12-07T00:16:44;17.90;47.40
7341;DHT22;6870;50.944;6.932;2022-12-07T00:19:13;17.60;47.20
7341;DHT22;6870;50.944;6.932;2022-12-07T00:21:42;17.50;47.00
7341;DHT22;6870;50.944;6.932;2022-12-07T00:24:11;17.60;47.20
7341;DHT22;6870;50.944;6.932;2022-12-07T00:26:41;17.60;47.20
7341;DHT22;6870;50.944;6.932;2022-12-07T00:29:15;17.50;47.40
7341;DHT22;6870;50.944;6.932;2022-12-07T00:31:44;17.60;47.30
7341;DHT22;6870;50.944;6.932;2022-12-07T00:34:15;17.80;47.70
7341;DHT22;6870;50.944;6.932;2022-12-07T00:36:44;17.70;47.70
7341;DHT22;6870;50.944;6.932;2022-12-07T00:39:12;17.50;47.70
7341;DHT22;6870;50.944;6.932;2022-12-07T00:41:41;17.80;47.70
7341;DHT22;6870;50.944;6.932;2022-12-07T00:44:09;17.90;47.70
7341;DHT22;6870;50.944;6.932;2022-12-07T00:46:38;17.50;47.60
7341;DHT22;6870;50.944;6.932;2022-12-07T00:49:06;17.70;47.80
7341;DHT22;6870;50.944;6.932;2022-12-07T00:51:34;17.60;47.70
7341;DHT22;6870;50.944;6.932;2022-12-07T00:54:03;17.70;47.80
7341;DHT22;6870;50.944;6.932;2022-12-07T00:56:31;17.60;47.80
7341;DHT22;6870;50.944;6.932;2022-12-07T00:59:01;17.80;48.00
7341;DHT22;6870;50.944;6.932;2022-12-07T01:01:31;17.80;48.00
7341;DHT22;6870;50.944;6.932;2022-12-07T01:04:03;17.80;48.20
7341;DHT22;6870;50.944;6.932;2022-12-07T01:06:32;17.80;48.20
7341;DHT22;6870;50.944;6.932;2022-12-07T01:09:00;17.50;47.80
7341;DHT22;6870;50.944;6.932;2022-12-07T01:11:29;17.50;48.10
7341;DHT22;6870;50.944;6.932;2022-12-07T01:13:59;17.70;48.30
7341;DHT22;6870;50.944;6.932;2022-12-07T01:16:29;17.70;48.30
7341;DHT22;6870;50.944;6.932;2022-12-07T01:18:59;17.70;48.20
7341;DHT22;6870;50.944;6.932;2022-12-07T01:21:33;17.60;48.20
7341;DHT22;6870;50.944;6.932;2022-12-07T01:24:06;17.90;48.50
7341;DHT22;6870;50.944;6.932;2022-12-07T01:26:36;17.70;48.20
7341;DHT22;6870;50.944;6.932;2022-12-07T01:29:05;17.50;48.20
7341;DHT22;6870;50.944;6.932;2022-12-07T01:31:33;17.70;48.50
7341;DHT22;6870;50.944;6.932;2022-12-07T01:34:03;17.70;48.60
7341;DHT22;6870;50.944;6.932;2022-12-07T01:36:33;17.80;49.30
7341;DHT22;6870;50.944;6.932;2022-12-07T01:39:04;17.50;48.40
7341;DHT22;6870;50.944;6.932;2022-12-07T01:41:35;17.60;48.20
7341;DHT22;6870;50.944;6.932;2022-12-07T01:44:16;17.60;48.30
7341;DHT22;6870;50.944;6.932;2022-12-07T01:46:47;17.60;47.90
7341;DHT22;6870;50.944;6.932;2022-12-07T01:49:23;17.60;48.50
7341;DHT22;6870;50.944;6.932;2022-12-07T01:51:59;17.70;48.40
7341;DHT22;6870;50.944;6.932;2022-12-07T01:54:31;17.70;48.30
7341;DHT22;6870;50.944;6.932;2022-12-07T01:57:01;17.50;48.40
7341;DHT22;6870;50.944;6.932;2022-12-07T01:59:30;17.70;48.70
7341;DHT22;6870;50.944;6.932;2022-12-07T02:01:59;17.60;48.70
7341;DHT22;6870;50.944;6.932;2022-12-07T02:04:31;17.70;48.50
7341;DHT22;6870;50.944;6.932;2022-12-07T02:07:00;17.60;48.50
7341;DHT22;6870;50.944;6.932;2022-12-07T02:09:28;17.80;48.60
7341;DHT22;6870;50.944;6.932;2022-12-07T02:11:56;17.70;48.50
7341;DHT22;6870;50.944;6.932;2022-12-07T02:14:25;17.60;48.50
7341;DHT22;6870;50.944;6.932;2022-12-07T02:17:03;17.80;48.50
7341;DHT22;6870;50.944;6.932;2022-12-07T02:20:04;17.40;48.20
7341;DHT22;6870;50.944;6.932;2022-12-07T02:26:02;17.60;48.60
7341;DHT22;6870;50.944;6.932;2022-12-07T02:29:07;17.60;48.50
7341;DHT22;6870;50.944;6.932;2022-12-07T02:31:43;17.80;48.70
7341;DHT22;6870;50.944;6.932;2022-12-07T02:34:20;17.50;48.70
7341;DHT22;6870;50.944;6.932;2022-12-07T02:36:55;17.60;48.70
7341;DHT22;6870;50.944;6.932;2022-12-07T02:39:31;17.90;48.80
7341;DHT22;6870;50.944;6.932;2022-12-07T02:42:09;17.70;48.80
7341;DHT22;6870;50.944;6.932;2022-12-07T02:44:44;17.40;48.50
7341;DHT22;6870;50.944;6.932;2022-12-07T02:47:15;17.70;49.20
7341;DHT22;6870;50.944;6.932;2022-12-07T02:49:45;17.60;48.90
7341;DHT22;6870;50.944;6.932;2022-12-07T02:52:13;17.80;49.10
7341;DHT22;6870;50.944;6.932;2022-12-07T02:54:42;17.60;48.70
7341;DHT22;6870;50.944;6.932;2022-12-07T02:57:24;17.60;48.70
7341;DHT22;6870;50.944;6.932;2022-12-07T03:00:07;17.80;49.20
7341;DHT22;6870;50.944;6.932;2022-12-07T03:02:44;17.50;48.20
7341;DHT22;6870;50.944;6.932;2022-12-07T03:08:30;17.60;49.00
7341;DHT22;6870;50.944;6.932;2022-12-07T03:11:06;17.60;49.00
7341;DHT22;6870;50.944;6.932;2022-12-07T03:13:41;17.50;49.00
7341;DHT22;6870;50.944;6.932;2022-12-07T03:16:16;17.60;49.10
7341;DHT22;6870;50.944;6.932;2022-12-07T03:18:49;17.60;49.20
7341;DHT22;6870;50.944;6.932;2022-12-07T03:21:23;17.60;49.20
7341;DHT22;6870;50.944;6.932;2022-12-07T03:23:56;17.60;49.20
7341;DHT22;6870;50.944;6.932;2022-12-07T03:26:31;17.50;49.30
7341;DHT22;6870;50.944;6.932;2022-12-07T03:29:06;17.80;49.30
7341;DHT22;6870;50.944;6.932;2022-12-07T03:31:40;17.80;49.30
7341;DHT22;6870;50.944;6.932;2022-12-07T03:34:14;17.50;49.10
7341;DHT22;6870;50.944;6.932;2022-12-07T03:36:47;17.50;49.00
7341;DHT22;6870;50.944;6.932;2022-12-07T03:39:23;17.60;49.20
7341;DHT22;6870;50.944;6.932;2022-12-07T03:41:54;17.60;49.20
7341;DHT22;6870;50.944;6.932;2022-12-07T03:44:24;17.60;49.50
7341;DHT22;6870;50.944;6.932;2022-12-07T03:47:01;17.60;49.30
7341;DHT22;6870;50.944;6.932;2022-12-07T03:49:36;17.70;49.40
7341;DHT22;6870;50.944;6.932;2022-12-07T03:52:12;17.60;49.40
7341;DHT22;6870;50.944;6.932;2022-12-07T03:54:52;17.50;49.30
7341;DHT22;6870;50.944;6.932;2022-12-07T03:57:25;17.60;49.40
7341;DHT22;6870;50.944;6.932;2022-12-07T03:59:55;17.60;49.60
7341;DHT22;6870;50.944;6.932;2022-12-07T04:02:27;17.50;49.40
7341;DHT22;6870;50.944;6.932;2022-12-07T04:04:55;17.40;49.30
7341;DHT22;6870;50.944;6.932;2022-12-07T04:07:24;17.70;49.60
7341;DHT22;6870;50.944;6.932;2022-12-07T04:09:53;17.40;48.70
7341;DHT22;6870;50.944;6.932;2022-12-07T04:12:22;17.60;49.70
7341;DHT22;6870;50.944;6.932;2022-12-07T04:14:50;17.60;49.60
7341;DHT22;6870;50.944;6.932;2022-12-07T04:17:18;17.70;49.70
7341;DHT22;6870;50.944;6.932;2022-12-07T04:19:47;17.60;49.70
7341;DHT22;6870;50.944;6.932;2022-12-07T04:22:15;17.50;49.50
7341;DHT22;6870;50.944;6.932;2022-12-07T04:24:43;17.60;50.60
7341;DHT22;6870;50.944;6.932;2022-12-07T04:27:12;17.70;49.90
7341;DHT22;6870;50.944;6.932;2022-12-07T04:29:40;17.60;49.70
7341;DHT22;6870;50.944;6.932;2022-12-07T04:32:08;17.40;49.40
7341;DHT22;6870;50.944;6.932;2022-12-07T04:34:36;17.60;49.70
7341;DHT22;6870;50.944;6.932;2022-12-07T04:37:06;17.60;49.90
7341;DHT22;6870;50.944;6.932;2022-12-07T04:39:34;17.60;50.00
7341;DHT22;6870;50.944;6.932;2022-12-07T04:42:02;17.60;50.00
7341;DHT22;6870;50.944;6.932;2022-12-07T04:44:31;17.80;50.20
7341;DHT22;6870;50.944;6.932;2022-12-07T04:46:59;17.50;50.10
7341;DHT22;6870;50.944;6.932;2022-12-07T04:49:27;17.70;50.10
7341;DHT22;6870;50.944;6.932;2022-12-07T04:51:55;17.70;50.10
7341;DHT22;6870;50.944;6.932;2022-12-07T04:54:25;17.50;50.00
7341;DHT22;6870;50.944;6.932;2022-12-07T04:56:53;17.70;50.10
7341;DHT22;6870;50.944;6.932;2022-12-07T04:59:21;17.70;50.20
7341;DHT22;6870;50.944;6.932;2022-12-07T05:01:49;17.70;50.00
7341;DHT22;6870;50.944;6.932;2022-12-07T05:04:17;17.60;50.10
7341;DHT22;6870;50.944;6.932;2022-12-07T05:06:45;17.70;50.20
7341;DHT22;6870;50.944;6.932;2022-12-07T05:09:13;17.70;50.40
7341;DHT22;6870;50.944;6.932;2022-12-07T05:11:43;17.80;50.20
7341;DHT22;6870;50.944;6.932;2022-12-07T05:14:13;17.50;49.90
7341;DHT22;6870;50.944;6.932;2022-12-07T05:16:44;17.80;50.20
7341;DHT22;6870;50.944;6.932;2022-12-07T05:19:14;17.70;50.30
7341;DHT22;6870;50.944;6.932;2022-12-07T05:21:42;17.50;49.90
7341;DHT22;6870;50.944;6.932;2022-12-07T05:24:12;17.90;50.20
7341;DHT22;6870;50.944;6.932;2022-12-07T05:26:42;17.50;49.90
7341;DHT22;6870;50.944;6.932;2022-12-07T05:29:12;17.70;50.10
7341;DHT22;6870;50.944;6.932;2022-12-07T05:31:41;17.60;50.20
7341;DHT22;6870;50.944;6.932;2022-12-07T05:34:09;17.70;50.40
7341;DHT22;6870;50.944;6.932;2022-12-07T05:36:38;17.50;50.20
7341;DHT22;6870;50.944;6.932;2022-12-07T05:39:06;17.50;50.20
7341;DHT22;6870;50.944;6.932;2022-12-07T05:41:35;17.60;50.50
7341;DHT22;6870;50.944;6.932;2022-12-07T05:44:22;17.70;50.60
7341;DHT22;6870;50.944;6.932;2022-12-07T05:46:50;17.50;50.30
7341;DHT22;6870;50.944;6.932;2022-12-07T05:49:18;17.60;50.40
7341;DHT22;6870;50.944;6.932;2022-12-07T05:51:46;17.40;50.20
7341;DHT22;6870;50.944;6.932;2022-12-07T05:54:14;17.40;50.20
7341;DHT22;6870;50.944;6.932;2022-12-07T05:56:42;17.30;50.20
7341;DHT22;6870;50.944;6.932;2022-12-07T05:59:10;17.50;50.40
7341;DHT22;6870;50.944;6.932;2022-12-07T06:01:54;17.40;50.20
7341;DHT22;6870;50.944;6.932;2022-12-07T06:04:25;17.50;50.60
7341;DHT22;6870;50.944;6.932;2022-12-07T06:06:54;17.60;50.60
7341;DHT22;6870;50.944;6.932;2022-12-07T06:09:24;17.60;50.40
7341;DHT22;6870;50.944;6.932;2022-12-07T06:11:54;17.60;50.50
7341;DHT22;6870;50.944;6.932;2022-12-07T06:14:41;17.60;50.60
7341;DHT22;6870;50.944;6.932;2022-12-07T06:17:11;17.70;50.90
7341;DHT22;6870;50.944;6.932;2022-12-07T06:19:40;17.60;50.70
7341;DHT22;6870;50.944;6.932;2022-12-07T06:22:09;17.60;50.70
7341;DHT22;6870;50.944;6.932;2022-12-07T06:24:38;17.60;50.80
7341;DHT22;6870;50.944;6.932;2022-12-07T06:27:07;17.70;51.00
7341;DHT22;6870;50.944;6.932;2022-12-07T06:29:35;17.50;50.80
7341;DHT22;6870;50.944;6.932;2022-12-07T06:32:04;17.70;51.00
7341;DHT22;6870;50.944;6.932;2022-12-07T06:34:34;17.50;50.90
7341;DHT22;6870;50.944;6.932;2022-12-07T06:37:02;17.60;50.90
7341;DHT22;6870;50.944;6.932;2022-12-07T06:39:31;17.80;51.20
7341;DHT22;6870;50.944;6.932;2022-12-07T06:41:59;17.70;51.20
7341;DHT22;6870;50.944;6.932;2022-12-07T06:44:27;17.60;50.70
7341;DHT22;6870;50.944;6.932;2022-12-07T06:46:56;17.90;51.20
7341;DHT22;6870;50.944;6.932;2022-12-07T06:49:45;17.60;51.00
7341;DHT22;6870;50.944;6.932;2022-12-07T06:52:13;17.60;51.20
7341;DHT22;6870;50.944;6.932;2022-12-07T06:54:41;17.40;51.10
7341;DHT22;6870;50.944;6.932;2022-12-07T06:57:09;17.40;51.20
7341;DHT22;6870;50.944;6.932;2022-12-07T06:59:37;17.50;51.20
7341;DHT22;6870;50.944;6.932;2022-12-07T07:02:06;17.70;52.30
7341;DHT22;6870;50.944;6.932;2022-12-07T07:04:35;17.70;51.40
7341;DHT22;6870;50.944;6.932;2022-12-07T07:07:04;17.70;51.30
7341;DHT22;6870;50.944;6.932;2022-12-07T07:09:33;17.60;51.20
7341;DHT22;6870;50.944;6.932;2022-12-07T07:12:01;17.80;51.50
7341;DHT22;6870;50.944;6.932;2022-12-07T07:14:29;17.60;51.30
7341;DHT22;6870;50.944;6.932;2022-12-07T07:16:57;17.80;51.30
7341;DHT22;6870;50.944;6.932;2022-12-07T07:19:25;17.50;51.30
7341;DHT22;6870;50.944;6.932;2022-12-07T07:21:53;17.50;51.30
7341;DHT22;6870;50.944;6.932;2022-12-07T07:24:23;17.80;51.50
7341;DHT22;6870;50.944;6.932;2022-12-07T07:26:51;17.60;51.40
7341;DHT22;6870;50.944;6.932;2022-12-07T07:29:19;17.60;51.20
7341;DHT22;6870;50.944;6.932;2022-12-07T07:31:47;17.60;51.10
7341;DHT22;6870;50.944;6.932;2022-12-07T07:34:15;17.60;51.40
7341;DHT22;6870;50.944;6.932;2022-12-07T07:36:44;17.70;51.30
7341;DHT22;6870;50.944;6.932;2022-12-07T07:39:12;17.70;51.40
7341;DHT22;6870;50.944;6.932;2022-12-07T07:41:42;17.80;51.30
7341;DHT22;6870;50.944;6.932;2022-12-07T07:44:10;17.50;50.80
7341;DHT22;6870;50.944;6.932;2022-12-07T07:46:39;17.60;51.00
7341;DHT22;6870;50.944;6.932;2022-12-07T07:49:08;17.70;51.30
7341;DHT22;6870;50.944;6.932;2022-12-07T07:51:36;17.70;51.20
7341;DHT22;6870;50.944;6.932;2022-12-07T07:54:05;17.70;51.10
7341;DHT22;6870;50.944;6.932;2022-12-07T07:56:33;17.50;51.00
7341;DHT22;6870;50.944;6.932;2022-12-07T07:59:02;17.60;51.00
7341;DHT22;6870;50.944;6.932;2022-12-07T08:01:31;17.80;51.40
7341;DHT22;6870;50.944;6.932;2022-12-07T08:04:00;17.80;50.70
7341;DHT22;6870;50.944;6.932;2022-12-07T08:06:28;17.60;50.80
7341;DHT22;6870;50.944;6.932;2022-12-07T08:09:00;17.60;51.70
7341;DHT22;6870;50.944;6.932;2022-12-07T08:12:08;17.70;51.00
7341;DHT22;6870;50.944;6.932;2022-12-07T08:14:50;17.60;50.90
7341;DHT22;6870;50.944;6.932;2022-12-07T08:17:27;17.80;51.20
7341;DHT22;6870;50.944;6.932;2022-12-07T08:20:08;17.70;51.00
7341;DHT22;6870;50.944;6.932;2022-12-07T08:22:37;17.50;50.70
7341;DHT22;6870;50.944;6.932;2022-12-07T08:25:07;17.60;50.90
7341;DHT22;6870;50.944;6.932;2022-12-07T08:27:36;17.90;51.10
7341;DHT22;6870;50.944;6.932;2022-12-07T08:30:07;17.60;50.70
7341;DHT22;6870;50.944;6.932;2022-12-07T08:32:36;17.90;50.80
7341;DHT22;6870;50.944;6.932;2022-12-07T08:35:05;17.60;50.60
7341;DHT22;6870;50.944;6.932;2022-12-07T08:37:35;17.80;50.70
7341;DHT22;6870;50.944;6.932;2022-12-07T08:40:05;17.70;50.60
7341;DHT22;6870;50.944;6.932;2022-12-07T08:42:41;18.10;50.90
7341;DHT22;6870;50.944;6.932;2022-12-07T08:45:14;18.10;49.90
7341;DHT22;6870;50.944;6.932;2022-12-07T08:47:50;18.10;50.00
7341;DHT22;6870;50.944;6.932;2022-12-07T08:50:20;18.10;49.30
7341;DHT22;6870;50.944;6.932;2022-12-07T08:52:51;18.00;49.40
7341;DHT22;6870;50.944;6.932;2022-12-07T08:55:21;18.00;49.10
7341;DHT22;6870;50.944;6.932;2022-12-07T08:57:50;18.10;49.10
7341;DHT22;6870;50.944;6.932;2022-12-07T09:00:19;18.10;48.80
7341;DHT22;6870;50.944;6.932;2022-12-07T09:02:48;18.40;48.90
7341;DHT22;6870;50.944;6.932;2022-12-07T09:05:16;18.40;48.20
7341;DHT22;6870;50.944;6.932;2022-12-07T09:07:46;18.40;47.50
7341;DHT22;6870;50.944;6.932;2022-12-07T09:10:18;18.50;46.40
7341;DHT22;6870;50.944;6.932;2022-12-07T09:12:46;18.30;46.40
7341;DHT22;6870;50.944;6.932;2022-12-07T09:15:14;18.20;46.50
7341;DHT22;6870;50.944;6.932;2022-12-07T09:17:44;18.20;45.20
7341;DHT22;6870;50.944;6.932;2022-12-07T09:20:12;18.70;44.90
7341;DHT22;6870;50.944;6.932;2022-12-07T09:22:40;18.70;44.80
7341;DHT22;6870;50.944;6.932;2022-12-07T09:25:09;18.60;44.60
7341;DHT22;6870;50.944;6.932;2022-12-07T09:27:37;18.40;44.10
7341;DHT22;6870;50.944;6.932;2022-12-07T09:30:06;18.60;44.50
7341;DHT22;6870;50.944;6.932;2022-12-07T09:32:34;18.60;44.50
7341;DHT22;6870;50.944;6.932;2022-12-07T09:35:05;18.60;44.40
7341;DHT22;6870;50.944;6.932;2022-12-07T09:37:33;18.40;44.30
7341;DHT22;6870;50.944;6.932;2022-12-07T09:40:04;18.30;44.00
7341;DHT22;6870;50.944;6.932;2022-12-07T09:42:36;18.30;40.50
7341;DHT22;6870;50.944;6.932;2022-12-07T09:45:10;17.60;33.30
7341;DHT22;6870;50.944;6.932;2022-12-07T09:47:40;17.60;38.50
7341;DHT22;6870;50.944;6.932;2022-12-07T09:50:14;17.90;38.70
7341;DHT22;6870;50.944;6.932;2022-12-07T09:52:45;18.00;39.00
7341;DHT22;6870;50.944;6.932;2022-12-07T09:55:16;18.10;38.70
7341;DHT22;6870;50.944;6.932;2022-12-07T09:57:48;18.20;39.00
7341;DHT22;6870;50.944;6.932;2022-12-07T10:00:19;18.20;40.00
7341;DHT22;6870;50.944;6.932;2022-12-07T10:02:52;18.10;38.50
7341;DHT22;6870;50.944;6.932;2022-12-07T10:05:26;18.00;39.00
7341;DHT22;6870;50.944;6.932;2022-12-07T10:07:56;18.30;39.20
7341;DHT22;6870;50.944;6.932;2022-12-07T10:10:26;18.50;39.50
7341;DHT22;6870;50.944;6.932;2022-12-07T10:13:03;18.50;39.70
7341;DHT22;6870;50.944;6.932;2022-12-07T10:15:47;18.30;39.70
7341;DHT22;6870;50.944;6.932;2022-12-07T10:18:36;18.60;40.00
7341;DHT22;6870;50.944;6.932;2022-12-07T10:21:14;18.60;40.10
7341;DHT22;6870;50.944;6.932;2022-12-07T10:23:59;18.50;39.90
7341;DHT22;6870;50.944;6.932;2022-12-07T10:26:34;18.60;40.60
7341;DHT22;6870;50.944;6.932;2022-12-07T10:29:14;18.30;40.80
7341;DHT22;6870;50.944;6.932;2022-12-07T10:31:44;18.50;40.90
7341;DHT22;6870;50.944;6.932;2022-12-07T10:34:21;18.20;40.80
7341;DHT22;6870;50.944;6.932;2022-12-07T10:36:53;18.60;41.30
7341;DHT22;6870;50.944;6.932;2022-12-07T10:39:22;18.50;41.10
7341;DHT22;6870;50.944;6.932;2022-12-07T10:41:55;18.60;41.20
7341;DHT22;6870;50.944;6.932;2022-12-07T10:44:25;18.70;41.20
7341;DHT22;6870;50.944;6.932;2022-12-07T10:47:08;18.80;41.40
7341;DHT22;6870;50.944;6.932;2022-12-07T10:50:27;19.00;41.00
7341;DHT22;6870;50.944;6.932;2022-12-07T10:53:26;19.10;40.90
7341;DHT22;6870;50.944;6.932;2022-12-07T10:56:27;19.30;40.80
7341;DHT22;6870;50.944;6.932;2022-12-07T10:59:12;19.40;40.60
7341;DHT22;6870;50.944;6.932;2022-12-07T11:01:53;19.50;40.30
7341;DHT22;6870;50.944;6.932;2022-12-07T11:04:33;19.20;40.30
7341;DHT22;6870;50.944;6.932;2022-12-07T11:07:10;19.00;40.30
7341;DHT22;6870;50.944;6.932;2022-12-07T11:09:53;19.20;40.70
7341;DHT22;6870;50.944;6.932;2022-12-07T11:12:47;19.20;40.60
7341;DHT22;6870;50.944;6.932;2022-12-07T11:15:29;19.20;41.00
7341;DHT22;6870;50.944;6.932;2022-12-07T11:18:06;19.20;41.20
7341;DHT22;6870;50.944;6.932;2022-12-07T11:20:41;19.10;41.70
7341;DHT22;6870;50.944;6.932;2022-12-07T11:23:18;19.20;41.80
7341;DHT22;6870;50.944;6.932;2022-12-07T11:25:56;19.20;41.70
7341;DHT22;6870;50.944;6.932;2022-12-07T11:28:42;19.10;41.70
7341;DHT22;6870;50.944;6.932;2022-12-07T11:31:29;19.00;41.20
7341;DHT22;6870;50.944;6.932;2022-12-07T11:34:10;19.30;41.50
7341;DHT22;6870;50.944;6.932;2022-12-07T11:36:46;19.20;41.00
7341;DHT22;6870;50.944;6.932;2022-12-07T11:39:23;19.00;40.40
7341;DHT22;6870;50.944;6.932;2022-12-07T11:42:01;19.30;41.30
7341;DHT22;6870;50.944;6.932;2022-12-07T11:44:36;19.00;41.00
7341;DHT22;6870;50.944;6.932;2022-12-07T11:47:10;18.90;41.20
7341;DHT22;6870;50.944;6.932;2022-12-07T11:49:43;19.10;41.60
7341;DHT22;6870;50.944;6.932;2022-12-07T11:52:20;18.90;41.30
7341;DHT22;6870;50.944;6.932;2022-12-07T11:54:52;19.30;41.70
7341;DHT22;6870;50.944;6.932;2022-12-07T11:57:25;19.00;41.40
7341;DHT22;6870;50.944;6.932;2022-12-07T12:00:00;19.00;41.20
7341;DHT22;6870;50.944;6.932;2022-12-07T12:02:36;18.90;41.10
7341;DHT22;6870;50.944;6.932;2022-12-07T12:05:15;19.00;41.00
7341;DHT22;6870;50.944;6.932;2022-12-07T12:07:46;19.20;41.20
7341;DHT22;6870;50.944;6.932;2022-12-07T12:10:45;19.10;41.00
7341;DHT22;6870;50.944;6.932;2022-12-07T12:13:47;19.10;41.10
7341;DHT22;6870;50.944;6.932;2022-12-07T12:17:05;19.00;41.20
7341;DHT22;6870;50.944;6.932;2022-12-07T12:20:00;19.00;41.60
7341;DHT22;6870;50.944;6.932;2022-12-07T12:22:35;18.60;41.50
7341;DHT22;6870;50.944;6.932;2022-12-07T12:25:12;19.00;42.20
7341;DHT22;6870;50.944;6.932;2022-12-07T12:27:50;19.00;42.20
7341;DHT22;6870;50.944;6.932;2022-12-07T12:30:31;18.60;41.80
7341;DHT22;6870;50.944;6.932;2022-12-07T12:33:06;18.70;41.80
7341;DHT22;6870;50.944;6.932;2022-12-07T12:35:41;18.70;42.00
7341;DHT22;6870;50.944;6.932;2022-12-07T12:38:31;18.70;42.10
7341;DHT22;6870;50.944;6.932;2022-12-07T12:41:01;18.60;42.20
7341;DHT22;6870;50.944;6.932;2022-12-07T12:43:50;19.10;42.90
7341;DHT22;6870;50.944;6.932;2022-12-07T12:46:51;19.00;43.20
7341;DHT22;6870;50.944;6.932;2022-12-07T12:53:03;19.00;43.70
7341;DHT22;6870;50.944;6.932;2022-12-07T12:56:17;19.00;44.10
7341;DHT22;6870;50.944;6.932;2022-12-07T12:59:23;19.00;44.30
7341;DHT22;6870;50.944;6.932;2022-12-07T13:02:05;19.00;44.60
7341;DHT22;6870;50.944;6.932;2022-12-07T13:04:55;18.70;44.30
7341;DHT22;6870;50.944;6.932;2022-12-07T13:07:54;19.10;44.70
7341;DHT22;6870;50.944;6.932;2022-12-07T13:10:41;18.60;44.30
7341;DHT22;6870;50.944;6.932;2022-12-07T13:13:32;18.80;44.40
7341;DHT22;6870;50.944;6.932;2022-12-07T13:22:41;19.00;44.70
7341;DHT22;6870;50.944;6.932;2022-12-07T13:25:12;19.10;44.90
7341;DHT22;6870;50.944;6.932;2022-12-07T13:27:52;18.80;44.50
7341;DHT22;6870;50.944;6.932;2022-12-07T13:30:26;18.80;44.40
7341;DHT22;6870;50.944;6.932;2022-12-07T13:32:57;19.00;44.60
7341;DHT22;6870;50.944;6.932;2022-12-07T13:35:32;18.60;44.00
7341;DHT22;6870;50.944;6.932;2022-12-07T13:38:22;19.00;44.60
7341;DHT22;6870;50.944;6.932;2022-12-07T13:41:04;18.70;44.30
7341;DHT22;6870;50.944;6.932;2022-12-07T13:43:45;18.70;44.30
7341;DHT22;6870;50.944;6.932;2022-12-07T13:46:14;19.00;44.60
7341;DHT22;6870;50.944;6.932;2022-12-07T13:48:46;19.10;44.50
7341;DHT22;6870;50.944;6.932;2022-12-07T13:51:20;18.60;44.00
7341;DHT22;6870;50.944;6.932;2022-12-07T13:53:51;19.00;44.20
7341;DHT22;6870;50.944;6.932;2022-12-07T13:56:22;18.80;44.00
7341;DHT22;6870;50.944;6.932;2022-12-07T13:58:54;18.80;43.80
7341;DHT22;6870;50.944;6.932;2022-12-07T14:01:24;18.90;43.90
7341;DHT22;6870;50.944;6.932;2022-12-07T14:03:52;19.00;44.10
7341;DHT22;6870;50.944;6.932;2022-12-07T14:06:24;19.00;44.10
7341;DHT22;6870;50.944;6.932;2022-12-07T14:09:07;19.10;43.90
7341;DHT22;6870;50.944;6.932;2022-12-07T14:11:37;19.10;43.90
7341;DHT22;6870;50.944;6.932;2022-12-07T14:14:06;19.10;44.10
7341;DHT22;6870;50.944;6.932;2022-12-07T14:16:39;19.00;44.00
7341;DHT22;6870;50.944;6.932;2022-12-07T14:19:41;18.70;43.60
7341;DHT22;6870;50.944;6.932;2022-12-07T14:22:29;18.60;43.40
7341;DHT22;6870;50.944;6.932;2022-12-07T14:25:00;18.60;43.30
7341;DHT22;6870;50.944;6.932;2022-12-07T14:27:32;18.50;43.20
7341;DHT22;6870;50.944;6.932;2022-12-07T14:30:03;18.80;43.50
7341;DHT22;6870;50.944;6.932;2022-12-07T14:32:35;18.60;43.40
7341;DHT22;6870;50.944;6.932;2022-12-07T14:35:10;18.70;43.60
7341;DHT22;6870;50.944;6.932;2022-12-07T14:37:46;18.60;43.50
7341;DHT22;6870;50.944;6.932;2022-12-07T14:40:18;18.60;43.50
7341;DHT22;6870;50.944;6.932;2022-12-07T14:42:51;18.60;43.40
7341;DHT22;6870;50.944;6.932;2022-12-07T14:45:22;18.20;43.10
7341;DHT22;6870;50.944;6.932;2022-12-07T14:47:50;18.20;43.10
7341;DHT22;6870;50.944;6.932;2022-12-07T14:50:41;18.20;43.10
7341;DHT22;6870;50.944;6.932;2022-12-07T14:53:38;18.50;43.30
7341;DHT22;6870;50.944;6.932;2022-12-07T14:56:08;18.60;43.40
7341;DHT22;6870;50.944;6.932;2022-12-07T14:58:36;18.50;43.30
7341;DHT22;6870;50.944;6.932;2022-12-07T15:01:04;18.50;43.30
7341;DHT22;6870;50.944;6.932;2022-12-07T15:03:32;18.60;43.30
7341;DHT22;6870;50.944;6.932;2022-12-07T15:06:04;18.40;43.10
7341;DHT22;6870;50.944;6.932;2022-12-07T15:08:35;18.30;43.00
7341;DHT22;6870;50.944;6.932;2022-12-07T15:11:03;18.10;43.60
7341;DHT22;6870;50.944;6.932;2022-12-07T15:13:31;18.20;42.90
7341;DHT22;6870;50.944;6.932;2022-12-07T15:16:19;18.40;43.00
7341;DHT22;6870;50.944;6.932;2022-12-07T15:18:48;18.10;42.80
7341;DHT22;6870;50.944;6.932;2022-12-07T15:21:36;18.10;42.80
7341;DHT22;6870;50.944;6.932;2022-12-07T15:24:07;18.10;42.70
7341;DHT22;6870;50.944;6.932;2022-12-07T15:26:36;18.40;43.00
7341;DHT22;6870;50.944;6.932;2022-12-07T15:29:04;18.00;42.60
7341;DHT22;6870;50.944;6.932;2022-12-07T15:31:33;18.10;42.70
7341;DHT22;6870;50.944;6.932;2022-12-07T15:34:22;18.30;42.80
7341;DHT22;6870;50.944;6.932;2022-12-07T15:36:51;18.30;42.90
7341;DHT22;6870;50.944;6.932;2022-12-07T15:39:21;18.10;42.70
7341;DHT22;6870;50.944;6.932;2022-12-07T15:41:49;18.00;42.50
7341;DHT22;6870;50.944;6.932;2022-12-07T15:44:17;18.30;42.90
7341;DHT22;6870;50.944;6.932;2022-12-07T15:47:04;18.10;42.70
7341;DHT22;6870;50.944;6.932;2022-12-07T15:49:32;18.40;43.00
7341;DHT22;6870;50.944;6.932;2022-12-07T15:52:00;18.00;42.70
7341;DHT22;6870;50.944;6.932;2022-12-07T15:54:31;18.10;42.80
7341;DHT22;6870;50.944;6.932;2022-12-07T15:56:59;18.00;42.60
7341;DHT22;6870;50.944;6.932;2022-12-07T15:59:28;18.00;42.70
7341;DHT22;6870;50.944;6.932;2022-12-07T16:01:56;18.10;42.90
7341;DHT22;6870;50.944;6.932;2022-12-07T16:04:27;18.20;43.00
7341;DHT22;6870;50.944;6.932;2022-12-07T16:06:55;18.20;43.00
7341;DHT22;6870;50.944;6.932;2022-12-07T16:09:24;18.10;43.00
7341;DHT22;6870;50.944;6.932;2022-12-07T16:11:53;18.10;43.00
7341;DHT22;6870;50.944;6.932;2022-12-07T16:14:21;18.40;43.40
7341;DHT22;6870;50.944;6.932;2022-12-07T16:16:50;18.40;43.50
7341;DHT22;6870;50.944;6.932;2022-12-07T16:19:18;18.40;44.20
7341;DHT22;6870;50.944;6.932;2022-12-07T16:21:45;18.00;43.10
7341;DHT22;6870;50.944;6.932;2022-12-07T16:24:13;18.00;43.00
7341;DHT22;6870;50.944;6.932;2022-12-07T16:26:43;18.30;43.50
7341;DHT22;6870;50.944;6.932;2022-12-07T16:29:18;18.10;43.20
7341;DHT22;6870;50.944;6.932;2022-12-07T16:31:48;18.10;43.20
7341;DHT22;6870;50.944;6.932;2022-12-07T16:34:17;18.20;43.40
7341;DHT22;6870;50.944;6.932;2022-12-07T16:36:45;18.30;43.50
7341;DHT22;6870;50.944;6.932;2022-12-07T16:39:31;17.90;43.30
7341;DHT22;6870;50.944;6.932;2022-12-07T16:42:00;18.30;43.60
7341;DHT22;6870;50.944;6.932;2022-12-07T16:44:30;18.00;44.80
7341;DHT22;6870;50.944;6.932;2022-12-07T16:46:59;18.20;46.20
7341;DHT22;6870;50.944;6.932;2022-12-07T16:49:28;18.20;46.20
7341;DHT22;6870;50.944;6.932;2022-12-07T16:51:56;18.40;46.50
7341;DHT22;6870;50.944;6.932;2022-12-07T16:54:44;18.00;46.40
7341;DHT22;6870;50.944;6.932;2022-12-07T16:57:12;18.00;46.50
7341;DHT22;6870;50.944;6.932;2022-12-07T16:59:49;18.10;47.10